sensor_id;sensor_type;location;lat;lon;timestamp;pressure;altitude;pressure_sealevel;temperature;humidity
77410;BME280;66481;51.332;22.804;2023-04-06T00:02:01;99980.91;;;-0.68;71.30
77410;BME280;66481;51.332;22.804;2023-04-06T00:06:03;99979.16;;;-0.69;71.47
77410;BME280;66481;51.332;22.804;2023-04-06T00:10:05;99979.97;;;-0.66;70.71
77410;BME280;66481;51.332;22.804;2023-04-06T00:14:06;99975.66;;;-0.67;71.68
77410;BME280;66481;51.332;22.804;2023-04-06T00:18:07;99963.69;;;-0.72;70.81
77410;BME280;66481;51.332;22.804;2023-04-06T00:22:08;99967.88;;;-0.67;71.49
77410;BME280;66481;51.332;22.804;2023-04-06T00:26:09;99951.47;;;-0.69;71.02
77410;BME280;66481;51.332;22.804;2023-04-06T00:30:11;99958.34;;;-0.68;70.74
77410;BME280;66481;51.332;22.804;2023-04-06T00:34:12;99946.19;;;-0.66;71.10
77410;BME280;66481;51.332;22.804;2023-04-06T00:38:15;99947.88;;;-0.65;71.53
77410;BME280;66481;51.332;22.804;2023-04-06T00:42:16;99941.72;;;-0.61;71.54
77410;BME280;66481;51.332;22.804;2023-04-06T00:46:18;99943.50;;;-0.63;71.38
77410;BME280;66481;51.332;22.804;2023-04-06T00:50:20;99930.47;;;-0.61;71.40
77410;BME280;66481;51.332;22.804;2023-04-06T00:54:21;99939.06;;;-0.58;71.94
77410;BME280;66481;51.332;22.804;2023-04-06T00:58:23;99927.69;;;-0.52;71.66
77410;BME280;66481;51.332;22.804;2023-04-06T01:02:25;99931.91;;;-0.48;71.37
77410;BME280;66481;51.332;22.804;2023-04-06T01:06:26;99928.47;;;-0.50;70.70
77410;BME280;66481;51.332;22.804;2023-04-06T01:10:28;99926.72;;;-0.49;70.70
77410;BME280;66481;51.332;22.804;2023-04-06T01:14:29;99916.34;;;-0.49;72.01
77410;BME280;66481;51.332;22.804;2023-04-06T01:18:30;99916.34;;;-0.49;71.26
77410;BME280;66481;51.332;22.804;2023-04-06T01:22:31;99905.97;;;-0.51;71.51
77410;BME280;66481;51.332;22.804;2023-04-06T01:26:33;99915.25;;;-0.41;71.15
77410;BME280;66481;51.332;22.804;2023-04-06T01:30:34;99904.09;;;-0.46;71.61
77410;BME280;66481;51.332;22.804;2023-04-06T01:34:35;99907.41;;;-0.39;70.96
77410;BME280;66481;51.332;22.804;2023-04-06T01:38:36;99904.97;;;-0.45;71.42
77410;BME280;66481;51.332;22.804;2023-04-06T01:42:37;99896.38;;;-0.49;71.52
77410;BME280;66481;51.332;22.804;2023-04-06T01:46:38;99891.97;;;-0.45;71.73
77410;BME280;66481;51.332;22.804;2023-04-06T01:50:39;99890.28;;;-0.46;72.17
77410;BME280;66481;51.332;22.804;2023-04-06T01:54:40;99890.19;;;-0.43;71.28
77410;BME280;66481;51.332;22.804;2023-04-06T01:58:41;99870.50;;;-0.52;71.87
77410;BME280;66481;51.332;22.804;2023-04-06T02:02:42;99871.41;;;-0.54;72.23
77410;BME280;66481;51.332;22.804;2023-04-06T02:06:43;99872.03;;;-0.45;72.44
77410;BME280;66481;51.332;22.804;2023-04-06T02:10:44;99859.13;;;-0.48;72.87
77410;BME280;66481;51.332;22.804;2023-04-06T02:14:45;99854.03;;;-0.52;73.38
77410;BME280;66481;51.332;22.804;2023-04-06T02:18:46;99850.72;;;-0.59;73.11
77410;BME280;66481;51.332;22.804;2023-04-06T02:22:47;99841.22;;;-0.59;74.39
77410;BME280;66481;51.332;22.804;2023-04-06T02:26:48;99839.38;;;-0.55;75.01
77410;BME280;66481;51.332;22.804;2023-04-06T02:30:49;99840.47;;;-0.64;75.43
77410;BME280;66481;51.332;22.804;2023-04-06T02:34:50;99837.75;;;-0.59;75.39
77410;BME280;66481;51.332;22.804;2023-04-06T02:38:51;99835.16;;;-0.61;76.10
77410;BME280;66481;51.332;22.804;2023-04-06T02:42:52;99827.53;;;-0.65;76.64
77410;BME280;66481;51.332;22.804;2023-04-06T02:46:53;99831.06;;;-0.69;77.01
77410;BME280;66481;51.332;22.804;2023-04-06T02:50:54;99823.34;;;-0.71;77.60
77410;BME280;66481;51.332;22.804;2023-04-06T02:54:56;99828.59;;;-0.74;78.44
77410;BME280;66481;51.332;22.804;2023-04-06T02:58:58;99826.94;;;-0.77;78.24
77410;BME280;66481;51.332;22.804;2023-04-06T03:02:59;99828.97;;;-0.88;79.50
77410;BME280;66481;51.332;22.804;2023-04-06T03:07:00;99821.28;;;-0.92;81.41
77410;BME280;66481;51.332;22.804;2023-04-06T03:11:01;99827.59;;;-1.03;82.85
77410;BME280;66481;51.332;22.804;2023-04-06T03:15:03;99821.50;;;-1.02;83.28
77410;BME280;66481;51.332;22.804;2023-04-06T03:19:04;99814.81;;;-1.10;83.82
77410;BME280;66481;51.332;22.804;2023-04-06T03:23:05;99807.19;;;-1.18;84.47
77410;BME280;66481;51.332;22.804;2023-04-06T03:27:06;99803.06;;;-1.27;85.23
77410;BME280;66481;51.332;22.804;2023-04-06T03:31:07;99803.78;;;-1.20;85.98
77410;BME280;66481;51.332;22.804;2023-04-06T03:35:09;99809.72;;;-1.15;86.49
77410;BME280;66481;51.332;22.804;2023-04-06T03:39:10;99797.56;;;-1.15;85.67
77410;BME280;66481;51.332;22.804;2023-04-06T03:43:11;99805.34;;;-1.15;85.77
77410;BME280;66481;51.332;22.804;2023-04-06T03:47:12;99797.59;;;-1.16;86.58
77410;BME280;66481;51.332;22.804;2023-04-06T03:51:13;99786.34;;;-1.15;86.08
77410;BME280;66481;51.332;22.804;2023-04-06T03:55:14;99781.88;;;-1.10;85.91
77410;BME280;66481;51.332;22.804;2023-04-06T03:59:15;99781.97;;;-1.13;86.48
77410;BME280;66481;51.332;22.804;2023-04-06T04:03:16;99773.22;;;-1.09;87.10
77410;BME280;66481;51.332;22.804;2023-04-06T04:07:18;99774.13;;;-1.11;87.10
77410;BME280;66481;51.332;22.804;2023-04-06T04:11:19;99775.69;;;-1.04;86.65
77410;BME280;66481;51.332;22.804;2023-04-06T04:15:20;99769.91;;;-1.16;86.81
77410;BME280;66481;51.332;22.804;2023-04-06T04:19:21;99767.09;;;-1.06;85.91
77410;BME280;66481;51.332;22.804;2023-04-06T04:23:22;99763.50;;;-1.02;86.60
77410;BME280;66481;51.332;22.804;2023-04-06T04:27:23;99762.03;;;-1.13;86.23
77410;BME280;66481;51.332;22.804;2023-04-06T04:31:24;99752.28;;;-1.03;86.08
77410;BME280;66481;51.332;22.804;2023-04-06T04:35:26;99745.28;;;-1.01;86.24
77410;BME280;66481;51.332;22.804;2023-04-06T04:39:27;99741.84;;;-1.01;86.75
77410;BME280;66481;51.332;22.804;2023-04-06T04:43:28;99734.94;;;-1.02;86.08
77410;BME280;66481;51.332;22.804;2023-04-06T04:47:28;99726.03;;;-0.92;86.77
77410;BME280;66481;51.332;22.804;2023-04-06T04:51:30;99738.91;;;-0.87;86.17
77410;BME280;66481;51.332;22.804;2023-04-06T04:55:32;99738.69;;;-0.80;85.84
77410;BME280;66481;51.332;22.804;2023-04-06T04:59:34;99725.91;;;-0.87;86.15
77410;BME280;66481;51.332;22.804;2023-04-06T05:03:36;99718.84;;;-0.82;85.98
77410;BME280;66481;51.332;22.804;2023-04-06T05:07:39;99725.78;;;-0.83;86.07
77410;BME280;66481;51.332;22.804;2023-04-06T05:11:40;99727.44;;;-0.80;86.52
77410;BME280;66481;51.332;22.804;2023-04-06T05:15:41;99719.78;;;-0.85;86.66
77410;BME280;66481;51.332;22.804;2023-04-06T05:19:43;99721.91;;;-0.68;86.08
77410;BME280;66481;51.332;22.804;2023-04-06T05:23:44;99710.81;;;-0.74;86.47
77410;BME280;66481;51.332;22.804;2023-04-06T05:27:45;99726.38;;;-0.73;86.60
77410;BME280;66481;51.332;22.804;2023-04-06T05:31:46;99713.34;;;-0.71;86.44
77410;BME280;66481;51.332;22.804;2023-04-06T05:35:47;99703.69;;;-0.66;86.33
77410;BME280;66481;51.332;22.804;2023-04-06T05:39:48;99713.22;;;-0.67;86.01
77410;BME280;66481;51.332;22.804;2023-04-06T05:43:49;99709.53;;;-0.58;85.93
77410;BME280;66481;51.332;22.804;2023-04-06T05:47:50;99711.97;;;-0.52;85.87
77410;BME280;66481;51.332;22.804;2023-04-06T05:51:54;99711.16;;;-0.55;86.30
77410;BME280;66481;51.332;22.804;2023-04-06T05:55:55;99703.34;;;-0.54;85.57
77410;BME280;66481;51.332;22.804;2023-04-06T05:59:56;99693.03;;;-0.57;85.75
77410;BME280;66481;51.332;22.804;2023-04-06T06:03:57;99691.34;;;-0.58;85.35
77410;BME280;66481;51.332;22.804;2023-04-06T06:07:58;99671.34;;;-0.56;86.42
77410;BME280;66481;51.332;22.804;2023-04-06T06:12:00;99681.94;;;-0.62;86.10
77410;BME280;66481;51.332;22.804;2023-04-06T06:16:01;99673.09;;;-0.57;86.01
77410;BME280;66481;51.332;22.804;2023-04-06T06:20:06;99680.94;;;-0.58;86.65
77410;BME280;66481;51.332;22.804;2023-04-06T06:24:07;99691.84;;;-0.47;86.05
77410;BME280;66481;51.332;22.804;2023-04-06T06:28:08;99678.19;;;-0.52;86.05
77410;BME280;66481;51.332;22.804;2023-04-06T06:32:09;99653.25;;;-0.59;86.34
77410;BME280;66481;51.332;22.804;2023-04-06T06:36:11;99661.63;;;-0.49;87.54
77410;BME280;66481;51.332;22.804;2023-04-06T06:40:12;99658.19;;;-0.50;87.56
77410;BME280;66481;51.332;22.804;2023-04-06T06:44:17;99651.00;;;-0.42;86.73
77410;BME280;66481;51.332;22.804;2023-04-06T06:48:18;99651.00;;;-0.42;87.43
77410;BME280;66481;51.332;22.804;2023-04-06T06:52:19;99665.75;;;-0.42;87.66
77410;BME280;66481;51.332;22.804;2023-04-06T06:56:21;99641.50;;;-0.43;88.29
77410;BME280;66481;51.332;22.804;2023-04-06T07:00:22;99632.44;;;-0.29;88.88
77410;BME280;66481;51.332;22.804;2023-04-06T07:04:23;99632.50;;;-0.31;89.02
77410;BME280;66481;51.332;22.804;2023-04-06T07:08:25;99610.78;;;-0.30;88.74
77410;BME280;66481;51.332;22.804;2023-04-06T07:12:27;99610.78;;;-0.30;89.49
77410;BME280;66481;51.332;22.804;2023-04-06T07:16:28;99618.91;;;-0.41;89.86
77410;BME280;66481;51.332;22.804;2023-04-06T07:20:29;99618.97;;;-0.42;90.79
77410;BME280;66481;51.332;22.804;2023-04-06T07:24:30;99631.78;;;-0.36;90.19
77410;BME280;66481;51.332;22.804;2023-04-06T07:28:31;99616.84;;;-0.29;90.46
77410;BME280;66481;51.332;22.804;2023-04-06T07:32:32;99622.94;;;-0.30;90.88
77410;BME280;66481;51.332;22.804;2023-04-06T07:36:35;99615.97;;;-0.30;90.51
77410;BME280;66481;51.332;22.804;2023-04-06T07:40:37;99626.34;;;-0.28;91.05
77410;BME280;66481;51.332;22.804;2023-04-06T07:44:38;99625.50;;;-0.29;91.09
77410;BME280;66481;51.332;22.804;2023-04-06T07:48:39;99607.28;;;-0.29;91.19
77410;BME280;66481;51.332;22.804;2023-04-06T07:52:40;99610.59;;;-0.24;90.99
77410;BME280;66481;51.332;22.804;2023-04-06T07:56:41;99593.72;;;-0.10;91.20
77410;BME280;66481;51.332;22.804;2023-04-06T08:00:43;99597.03;;;-0.05;90.61
77410;BME280;66481;51.332;22.804;2023-04-06T08:04:44;99602.94;;;0.00;90.12
77410;BME280;66481;51.332;22.804;2023-04-06T08:08:45;99592.66;;;-0.05;90.01
77410;BME280;66481;51.332;22.804;2023-04-06T08:23:41;99576.28;;;0.18;90.01
77410;BME280;66481;51.332;22.804;2023-04-06T08:27:42;99564.03;;;0.22;89.52
77410;BME280;66481;51.332;22.804;2023-04-06T08:31:43;99564.06;;;0.21;89.12
77410;BME280;66481;51.332;22.804;2023-04-06T08:35:44;99582.19;;;0.24;89.23
77410;BME280;66481;51.332;22.804;2023-04-06T08:39:46;99574.16;;;0.31;89.15
77410;BME280;66481;51.332;22.804;2023-04-06T08:43:49;99582.66;;;0.36;88.80
77410;BME280;66481;51.332;22.804;2023-04-06T08:47:51;99589.28;;;0.45;88.46
77410;BME280;66481;51.332;22.804;2023-04-06T08:51:55;99583.25;;;0.43;88.71
77410;BME280;66481;51.332;22.804;2023-04-06T08:55:58;99590.31;;;0.40;88.54
77410;BME280;66481;51.332;22.804;2023-04-06T09:00:01;99583.34;;;0.42;89.15
77410;BME280;66481;51.332;22.804;2023-04-06T09:04:03;99576.63;;;0.34;90.66
77410;BME280;66481;51.332;22.804;2023-04-06T09:08:09;99554.22;;;0.30;90.44
77410;BME280;66481;51.332;22.804;2023-04-06T09:12:25;99560.63;;;0.47;90.37
77410;BME280;66481;51.332;22.804;2023-04-06T09:16:27;99559.28;;;0.35;91.00
77410;BME280;66481;51.332;22.804;2023-04-06T09:20:28;99565.44;;;0.58;91.28
77410;BME280;66481;51.332;22.804;2023-04-06T09:24:41;99568.13;;;0.54;91.28
77410;BME280;66481;51.332;22.804;2023-04-06T09:32:49;99542.53;;;0.42;92.92
77410;BME280;66481;51.332;22.804;2023-04-06T09:36:53;99499.56;;;0.55;91.82
77410;BME280;66481;51.332;22.804;2023-04-06T09:40:54;99509.28;;;0.50;92.74
77410;BME280;66481;51.332;22.804;2023-04-06T09:44:55;99548.09;;;0.56;91.31
77410;BME280;66481;51.332;22.804;2023-04-06T09:48:57;99565.53;;;0.54;92.05
77410;BME280;66481;51.332;22.804;2023-04-06T09:53:00;99572.47;;;0.55;91.85
77410;BME280;66481;51.332;22.804;2023-04-06T10:01:26;99602.88;;;0.53;91.94
77410;BME280;66481;51.332;22.804;2023-04-06T10:05:55;99588.38;;;0.71;91.96
77410;BME280;66481;51.332;22.804;2023-04-06T10:10:00;99568.50;;;0.69;92.02
77410;BME280;66481;51.332;22.804;2023-04-06T10:14:03;99528.50;;;0.71;92.37
77410;BME280;66481;51.332;22.804;2023-04-06T10:18:05;99524.66;;;0.82;93.38
77410;BME280;66481;51.332;22.804;2023-04-06T10:22:09;99517.19;;;0.71;92.69
77410;BME280;66481;51.332;22.804;2023-04-06T10:26:19;99541.28;;;0.78;92.56
77410;BME280;66481;51.332;22.804;2023-04-06T10:30:21;99531.72;;;0.78;93.19
77410;BME280;66481;51.332;22.804;2023-04-06T10:34:23;99547.16;;;0.83;93.20
77410;BME280;66481;51.332;22.804;2023-04-06T10:38:38;99523.22;;;0.73;93.44
77410;BME280;66481;51.332;22.804;2023-04-06T10:42:40;99518.97;;;0.70;93.41
77410;BME280;66481;51.332;22.804;2023-04-06T10:46:55;99466.72;;;0.75;92.87
77410;BME280;66481;51.332;22.804;2023-04-06T10:50:56;99478.59;;;0.82;93.70
77410;BME280;66481;51.332;22.804;2023-04-06T10:54:57;99464.81;;;0.80;93.68
77410;BME280;66481;51.332;22.804;2023-04-06T10:58:59;99455.94;;;0.84;93.57
77410;BME280;66481;51.332;22.804;2023-04-06T11:03:00;99453.28;;;0.86;94.02
77410;BME280;66481;51.332;22.804;2023-04-06T11:07:02;99455.22;;;0.81;93.80
77410;BME280;66481;51.332;22.804;2023-04-06T11:11:09;99471.66;;;1.05;93.24
77410;BME280;66481;51.332;22.804;2023-04-06T11:15:10;99489.47;;;0.93;93.36
77410;BME280;66481;51.332;22.804;2023-04-06T11:19:11;99482.63;;;0.91;93.55
77410;BME280;66481;51.332;22.804;2023-04-06T11:23:22;99474.84;;;0.89;93.85
77410;BME280;66481;51.332;22.804;2023-04-06T11:27:23;99490.28;;;0.96;93.48
77410;BME280;66481;51.332;22.804;2023-04-06T11:31:26;99485.69;;;1.02;93.04
77410;BME280;66481;51.332;22.804;2023-04-06T11:35:30;99476.09;;;1.03;93.38
77410;BME280;66481;51.332;22.804;2023-04-06T11:39:38;99460.81;;;1.16;93.65
77410;BME280;66481;51.332;22.804;2023-04-06T11:43:47;99461.13;;;1.08;93.23
77410;BME280;66481;51.332;22.804;2023-04-06T11:47:58;99461.50;;;1.21;93.26
77410;BME280;66481;51.332;22.804;2023-04-06T11:52:00;99453.31;;;1.30;93.61
77410;BME280;66481;51.332;22.804;2023-04-06T11:56:01;99447.63;;;1.20;93.62
77410;BME280;66481;51.332;22.804;2023-04-06T12:00:02;99453.00;;;1.38;93.07
77410;BME280;66481;51.332;22.804;2023-04-06T12:04:04;99442.84;;;1.31;93.02
77410;BME280;66481;51.332;22.804;2023-04-06T12:08:05;99442.03;;;1.29;93.19
77410;BME280;66481;51.332;22.804;2023-04-06T12:12:07;99433.25;;;1.32;93.57
77410;BME280;66481;51.332;22.804;2023-04-06T12:16:08;99435.59;;;1.38;93.34
77410;BME280;66481;51.332;22.804;2023-04-06T12:20:09;99438.59;;;1.29;93.48
77410;BME280;66481;51.332;22.804;2023-04-06T12:24:11;99439.78;;;1.42;93.26
77410;BME280;66481;51.332;22.804;2023-04-06T12:28:12;99439.19;;;1.36;93.43
77410;BME280;66481;51.332;22.804;2023-04-06T12:32:14;99434.47;;;1.23;93.77
77410;BME280;66481;51.332;22.804;2023-04-06T12:36:16;99432.81;;;1.43;94.37
77410;BME280;66481;51.332;22.804;2023-04-06T12:40:20;99432.63;;;1.47;93.81
77410;BME280;66481;51.332;22.804;2023-04-06T12:44:21;99425.66;;;1.48;94.17
77410;BME280;66481;51.332;22.804;2023-04-06T12:48:22;99412.56;;;1.49;94.60
77410;BME280;66481;51.332;22.804;2023-04-06T12:52:23;99409.94;;;1.49;93.68
77410;BME280;66481;51.332;22.804;2023-04-06T12:56:24;99418.56;;;1.52;94.51
77410;BME280;66481;51.332;22.804;2023-04-06T13:00:26;99420.09;;;1.56;94.39
77410;BME280;66481;51.332;22.804;2023-04-06T13:04:26;99414.78;;;1.59;94.32
77410;BME280;66481;51.332;22.804;2023-04-06T13:08:27;99425.16;;;1.60;94.59
77410;BME280;66481;51.332;22.804;2023-04-06T13:12:29;99421.94;;;1.54;94.61
77410;BME280;66481;51.332;22.804;2023-04-06T13:16:31;99424.25;;;1.61;94.47
77410;BME280;66481;51.332;22.804;2023-04-06T13:20:33;99408.00;;;1.55;95.08
77410;BME280;66481;51.332;22.804;2023-04-06T13:24:34;99410.66;;;1.53;95.33
77410;BME280;66481;51.332;22.804;2023-04-06T13:28:36;99384.78;;;1.48;94.88
77410;BME280;66481;51.332;22.804;2023-04-06T13:32:38;99395.69;;;1.58;94.91
77410;BME280;66481;51.332;22.804;2023-04-06T13:36:39;99393.13;;;1.57;95.47
77410;BME280;66481;51.332;22.804;2023-04-06T13:40:42;99391.06;;;1.65;95.65
77410;BME280;66481;51.332;22.804;2023-04-06T13:44:43;99398.59;;;1.71;95.48
77410;BME280;66481;51.332;22.804;2023-04-06T13:48:44;99388.16;;;1.71;95.34
77410;BME280;66481;51.332;22.804;2023-04-06T13:52:45;99383.94;;;1.68;95.83
77410;BME280;66481;51.332;22.804;2023-04-06T13:56:46;99376.06;;;1.70;96.29
77410;BME280;66481;51.332;22.804;2023-04-06T14:00:47;99382.84;;;1.74;95.98
77410;BME280;66481;51.332;22.804;2023-04-06T14:04:48;99390.78;;;1.71;96.20
77410;BME280;66481;51.332;22.804;2023-04-06T14:08:50;99381.16;;;1.73;96.07
77410;BME280;66481;51.332;22.804;2023-04-06T14:12:51;99373.25;;;1.75;95.85
77410;BME280;66481;51.332;22.804;2023-04-06T14:16:53;99382.72;;;1.77;96.19
77410;BME280;66481;51.332;22.804;2023-04-06T14:20:55;99381.41;;;1.87;95.83
77410;BME280;66481;51.332;22.804;2023-04-06T14:24:57;99383.16;;;1.87;96.51
77410;BME280;66481;51.332;22.804;2023-04-06T14:28:59;99389.09;;;1.91;96.72
77410;BME280;66481;51.332;22.804;2023-04-06T14:33:01;99383.94;;;1.89;96.29
77410;BME280;66481;51.332;22.804;2023-04-06T14:37:02;99385.44;;;1.95;95.72
77410;BME280;66481;51.332;22.804;2023-04-06T14:41:04;99384.00;;;1.87;96.28
77410;BME280;66481;51.332;22.804;2023-04-06T14:45:07;99380.22;;;1.95;96.69
77410;BME280;66481;51.332;22.804;2023-04-06T14:49:09;99373.94;;;1.99;96.48
77410;BME280;66481;51.332;22.804;2023-04-06T14:53:10;99378.97;;;2.03;96.09
77410;BME280;66481;51.332;22.804;2023-04-06T14:57:12;99375.50;;;2.03;96.01
77410;BME280;66481;51.332;22.804;2023-04-06T15:01:13;99379.88;;;2.02;96.44
77410;BME280;66481;51.332;22.804;2023-04-06T15:05:14;99369.53;;;2.01;96.92
77410;BME280;66481;51.332;22.804;2023-04-06T15:09:16;99383.13;;;2.07;96.63
77410;BME280;66481;51.332;22.804;2023-04-06T15:13:17;99371.97;;;2.04;96.19
77410;BME280;66481;51.332;22.804;2023-04-06T15:17:18;99376.88;;;2.12;96.35
77410;BME280;66481;51.332;22.804;2023-04-06T15:21:20;99380.19;;;2.15;96.27
77410;BME280;66481;51.332;22.804;2023-04-06T15:25:21;99372.69;;;2.07;96.52
77410;BME280;66481;51.332;22.804;2023-04-06T15:29:22;99377.72;;;2.12;96.55
77410;BME280;66481;51.332;22.804;2023-04-06T15:33:23;99373.63;;;2.06;96.60
77410;BME280;66481;51.332;22.804;2023-04-06T15:37:24;99369.69;;;2.17;96.65
77410;BME280;66481;51.332;22.804;2023-04-06T15:41:27;99350.53;;;2.16;96.86
77410;BME280;66481;51.332;22.804;2023-04-06T15:45:28;99371.41;;;2.16;97.17
77410;BME280;66481;51.332;22.804;2023-04-06T15:49:30;99365.44;;;2.14;96.96
77410;BME280;66481;51.332;22.804;2023-04-06T15:53:32;99364.53;;;2.15;97.21
77410;BME280;66481;51.332;22.804;2023-04-06T15:57:33;99345.31;;;2.16;97.42
77410;BME280;66481;51.332;22.804;2023-04-06T16:01:35;99350.63;;;2.15;97.77
77410;BME280;66481;51.332;22.804;2023-04-06T16:05:36;99344.47;;;2.16;97.74
77410;BME280;66481;51.332;22.804;2023-04-06T16:09:38;99368.63;;;2.21;97.64
77410;BME280;66481;51.332;22.804;2023-04-06T16:13:39;99373.84;;;2.21;97.40
77410;BME280;66481;51.332;22.804;2023-04-06T16:17:41;99369.25;;;2.26;97.38
77410;BME280;66481;51.332;22.804;2023-04-06T16:21:46;99378.44;;;2.35;97.52
77410;BME280;66481;51.332;22.804;2023-04-06T16:25:48;99378.50;;;2.33;97.95
77410;BME280;66481;51.332;22.804;2023-04-06T16:29:54;99375.69;;;2.38;97.50
77410;BME280;66481;51.332;22.804;2023-04-06T16:33:56;99373.22;;;2.35;97.88
77410;BME280;66481;51.332;22.804;2023-04-06T16:37:57;99371.09;;;2.43;98.11
77410;BME280;66481;51.332;22.804;2023-04-06T16:41:59;99367.34;;;2.49;97.88
77410;BME280;66481;51.332;22.804;2023-04-06T16:46:01;99364.97;;;2.44;98.38
77410;BME280;66481;51.332;22.804;2023-04-06T16:50:04;99366.44;;;2.50;98.14
77410;BME280;66481;51.332;22.804;2023-04-06T16:54:05;99355.78;;;2.54;98.32
77410;BME280;66481;51.332;22.804;2023-04-06T16:58:07;99356.41;;;2.59;98.73
77410;BME280;66481;51.332;22.804;2023-04-06T17:02:11;99360.53;;;2.65;98.42
77410;BME280;66481;51.332;22.804;2023-04-06T17:06:15;99358.88;;;2.62;98.29
77410;BME280;66481;51.332;22.804;2023-04-06T17:10:17;99356.19;;;2.64;98.49
77410;BME280;66481;51.332;22.804;2023-04-06T17:14:19;99357.97;;;2.63;98.42
77410;BME280;66481;51.332;22.804;2023-04-06T17:18:21;99363.91;;;2.67;98.22
77410;BME280;66481;51.332;22.804;2023-04-06T17:22:22;99370.72;;;2.70;98.71
77410;BME280;66481;51.332;22.804;2023-04-06T17:26:24;99363.06;;;2.67;99.05
77410;BME280;66481;51.332;22.804;2023-04-06T17:30:26;99365.56;;;2.68;98.73
77410;BME280;66481;51.332;22.804;2023-04-06T17:34:28;99361.34;;;2.66;98.88
77410;BME280;66481;51.332;22.804;2023-04-06T17:38:30;99361.50;;;2.62;99.10
77410;BME280;66481;51.332;22.804;2023-04-06T17:42:32;99368.75;;;2.75;99.02
77410;BME280;66481;51.332;22.804;2023-04-06T17:46:33;99368.75;;;2.75;98.87
77410;BME280;66481;51.332;22.804;2023-04-06T17:50:36;99358.84;;;2.81;98.86
77410;BME280;66481;51.332;22.804;2023-04-06T17:54:39;99357.94;;;2.82;99.11
77410;BME280;66481;51.332;22.804;2023-04-06T17:58:40;99364.16;;;2.80;99.02
77410;BME280;66481;51.332;22.804;2023-04-06T18:02:41;99366.41;;;2.88;99.04
77410;BME280;66481;51.332;22.804;2023-04-06T18:06:43;99363.81;;;2.88;98.91
77410;BME280;66481;51.332;22.804;2023-04-06T18:10:45;99368.97;;;2.89;98.94
77410;BME280;66481;51.332;22.804;2023-04-06T18:14:49;99368.66;;;2.95;99.21
77410;BME280;66481;51.332;22.804;2023-04-06T18:18:51;99365.97;;;2.97;99.14
77410;BME280;66481;51.332;22.804;2023-04-06T18:22:53;99369.66;;;2.93;99.37
77410;BME280;66481;51.332;22.804;2023-04-06T18:26:56;99370.22;;;2.99;99.34
77410;BME280;66481;51.332;22.804;2023-04-06T18:30:58;99370.28;;;2.98;99.50
77410;BME280;66481;51.332;22.804;2023-04-06T18:35:00;99364.69;;;3.06;99.72
77410;BME280;66481;51.332;22.804;2023-04-06T18:39:01;99362.06;;;3.06;99.46
77410;BME280;66481;51.332;22.804;2023-04-06T18:43:04;99368.84;;;3.10;99.70
77410;BME280;66481;51.332;22.804;2023-04-06T18:47:06;99361.22;;;3.05;99.93
77410;BME280;66481;51.332;22.804;2023-04-06T18:51:08;99370.47;;;3.12;99.25
77410;BME280;66481;51.332;22.804;2023-04-06T18:55:11;99362.00;;;3.07;99.65
77410;BME280;66481;51.332;22.804;2023-04-06T18:59:14;99364.59;;;3.07;99.46
77410;BME280;66481;51.332;22.804;2023-04-06T19:03:19;99362.00;;;3.07;99.85
77410;BME280;66481;51.332;22.804;2023-04-06T19:07:20;99366.84;;;3.15;99.83
77410;BME280;66481;51.332;22.804;2023-04-06T19:11:23;99361.16;;;3.07;100.00
77410;BME280;66481;51.332;22.804;2023-04-06T19:15:27;99356.31;;;3.16;100.00
77410;BME280;66481;51.332;22.804;2023-04-06T19:19:30;99358.00;;;3.17;100.00
77410;BME280;66481;51.332;22.804;2023-04-06T19:23:33;99350.25;;;3.16;99.86
77410;BME280;66481;51.332;22.804;2023-04-06T19:27:38;99339.72;;;3.17;99.50
77410;BME280;66481;51.332;22.804;2023-04-06T19:31:40;99339.50;;;3.22;99.81
77410;BME280;66481;51.332;22.804;2023-04-06T19:35:42;99330.72;;;3.23;99.76
77410;BME280;66481;51.332;22.804;2023-04-06T19:39:45;99336.00;;;3.22;100.00
77410;BME280;66481;51.332;22.804;2023-04-06T19:43:49;99331.47;;;3.25;100.00
77410;BME280;66481;51.332;22.804;2023-04-06T19:47:53;99332.34;;;3.26;99.98
77410;BME280;66481;51.332;22.804;2023-04-06T19:51:56;99317.63;;;3.23;100.00
77410;BME280;66481;51.332;22.804;2023-04-06T19:55:57;99331.19;;;3.31;99.97
77410;BME280;66481;51.332;22.804;2023-04-06T19:59:59;99325.25;;;3.28;100.00
77410;BME280;66481;51.332;22.804;2023-04-06T20:04:02;99325.94;;;3.31;100.00
77410;BME280;66481;51.332;22.804;2023-04-06T20:08:04;99321.63;;;3.30;100.00
77410;BME280;66481;51.332;22.804;2023-04-06T20:12:06;99324.56;;;3.42;99.98
77410;BME280;66481;51.332;22.804;2023-04-06T20:16:07;99323.94;;;3.36;99.98
77410;BME280;66481;51.332;22.804;2023-04-06T20:20:09;99317.41;;;3.45;100.00
77410;BME280;66481;51.332;22.804;2023-04-06T20:24:11;99317.09;;;3.34;100.00
77410;BME280;66481;51.332;22.804;2023-04-06T20:28:12;99320.25;;;3.41;100.00
77410;BME280;66481;51.332;22.804;2023-04-06T20:32:14;99313.78;;;3.48;100.00
77410;BME280;66481;51.332;22.804;2023-04-06T20:36:20;99320.25;;;3.41;100.00
77410;BME280;66481;51.332;22.804;2023-04-06T20:40:21;99316.09;;;3.36;100.00
77410;BME280;66481;51.332;22.804;2023-04-06T20:44:23;99309.97;;;3.37;100.00
77410;BME280;66481;51.332;22.804;2023-04-06T20:48:27;99309.41;;;3.48;100.00
77410;BME280;66481;51.332;22.804;2023-04-06T20:52:29;99315.31;;;3.52;100.00
77410;BME280;66481;51.332;22.804;2023-04-06T20:56:31;99318.78;;;3.52;100.00
77410;BME280;66481;51.332;22.804;2023-04-06T21:00:33;99314.16;;;3.57;100.00
77410;BME280;66481;51.332;22.804;2023-04-06T21:04:34;99302.53;;;3.63;100.00
77410;BME280;66481;51.332;22.804;2023-04-06T21:08:36;99297.41;;;3.62;100.00
77410;BME280;66481;51.332;22.804;2023-04-06T21:12:37;99309.66;;;3.77;100.00
77410;BME280;66481;51.332;22.804;2023-04-06T21:16:38;99298.13;;;3.81;100.00
77410;BME280;66481;51.332;22.804;2023-04-06T21:20:39;99305.91;;;3.83;100.00
77410;BME280;66481;51.332;22.804;2023-04-06T21:24:41;99309.88;;;3.90;100.00
77410;BME280;66481;51.332;22.804;2023-04-06T21:28:42;99305.81;;;3.84;100.00
77410;BME280;66481;51.332;22.804;2023-04-06T21:32:43;99309.34;;;3.83;100.00